sensor_id;sensor_type;location;lat;lon;timestamp;temperature;humidity
13817;DHT22;6979;52.116;5.286;2022-11-14T00:01:42;11.40;99.60
13817;DHT22;6979;52.116;5.286;2022-11-14T00:04:27;11.30;99.70
13817;DHT22;6979;52.116;5.286;2022-11-14T00:07:14;11.30;99.80
13817;DHT22;6979;52.116;5.286;2022-11-14T00:10:00;11.30;99.80
13817;DHT22;6979;52.116;5.286;2022-11-14T00:12:46;11.20;99.90
13817;DHT22;6979;52.116;5.286;2022-11-14T00:15:32;11.20;99.90
13817;DHT22;6979;52.116;5.286;2022-11-14T00:18:17;11.20;99.90
13817;DHT22;6979;52.116;5.286;2022-11-14T00:21:03;11.20;99.90
13817;DHT22;6979;52.116;5.286;2022-11-14T00:23:50;11.10;99.90
13817;DHT22;6979;52.116;5.286;2022-11-14T00:26:35;11.10;99.90
13817;DHT22;6979;52.116;5.286;2022-11-14T00:29:21;11.10;99.90
13817;DHT22;6979;52.116;5.286;2022-11-14T00:32:06;11.10;99.90
13817;DHT22;6979;52.116;5.286;2022-11-14T00:34:52;11.00;99.90
13817;DHT22;6979;52.116;5.286;2022-11-14T00:37:37;11.00;99.90
13817;DHT22;6979;52.116;5.286;2022-11-14T00:40:25;11.00;99.90
13817;DHT22;6979;52.116;5.286;2022-11-14T00:43:11;10.90;99.90
13817;DHT22;6979;52.116;5.286;2022-11-14T00:45:56;10.90;99.90
13817;DHT22;6979;52.116;5.286;2022-11-14T00:48:42;10.90;99.90
13817;DHT22;6979;52.116;5.286;2022-11-14T00:51:27;10.80;99.90
13817;DHT22;6979;52.116;5.286;2022-11-14T00:54:13;10.80;99.90
13817;DHT22;6979;52.116;5.286;2022-11-14T00:57:00;10.80;99.90
13817;DHT22;6979;52.116;5.286;2022-11-14T00:59:45;10.80;99.90
13817;DHT22;6979;52.116;5.286;2022-11-14T01:02:31;10.70;99.90
13817;DHT22;6979;52.116;5.286;2022-11-14T01:05:16;10.70;99.90
13817;DHT22;6979;52.116;5.286;2022-11-14T01:08:01;10.60;99.90
13817;DHT22;6979;52.116;5.286;2022-11-14T01:10:48;10.60;99.90
13817;DHT22;6979;52.116;5.286;2022-11-14T01:13:35;10.60;99.90
13817;DHT22;6979;52.116;5.286;2022-11-14T01:16:21;10.50;99.90
13817;DHT22;6979;52.116;5.286;2022-11-14T01:19:08;10.50;99.90
13817;DHT22;6979;52.116;5.286;2022-11-14T01:21:53;10.40;99.90
13817;DHT22;6979;52.116;5.286;2022-11-14T01:24:39;10.40;99.90
13817;DHT22;6979;52.116;5.286;2022-11-14T01:27:24;10.40;99.90
13817;DHT22;6979;52.116;5.286;2022-11-14T01:30:12;10.30;99.90
13817;DHT22;6979;52.116;5.286;2022-11-14T01:32:58;10.30;99.90
13817;DHT22;6979;52.116;5.286;2022-11-14T01:35:44;10.30;99.90
13817;DHT22;6979;52.116;5.286;2022-11-14T01:38:29;10.20;99.90
13817;DHT22;6979;52.116;5.286;2022-11-14T01:41:15;10.20;99.90
13817;DHT22;6979;52.116;5.286;2022-11-14T01:44:01;10.20;99.90
13817;DHT22;6979;52.116;5.286;2022-11-14T01:46:52;10.20;99.90
13817;DHT22;6979;52.116;5.286;2022-11-14T01:49:41;10.10;99.90
13817;DHT22;6979;52.116;5.286;2022-11-14T01:52:30;10.10;99.90
13817;DHT22;6979;52.116;5.286;2022-11-14T01:55:16;10.10;99.90
13817;DHT22;6979;52.116;5.286;2022-11-14T01:58:02;10.10;99.90
13817;DHT22;6979;52.116;5.286;2022-11-14T02:00:47;10.00;99.90
13817;DHT22;6979;52.116;5.286;2022-11-14T02:03:36;10.00;99.90
13817;DHT22;6979;52.116;5.286;2022-11-14T02:06:26;10.00;99.90
13817;DHT22;6979;52.116;5.286;2022-11-14T02:09:12;10.00;99.90
13817;DHT22;6979;52.116;5.286;2022-11-14T02:11:58;9.90;99.90
13817;DHT22;6979;52.116;5.286;2022-11-14T02:14:47;9.90;99.90
13817;DHT22;6979;52.116;5.286;2022-11-14T02:17:34;9.90;99.90
13817;DHT22;6979;52.116;5.286;2022-11-14T02:20:25;9.90;99.90
13817;DHT22;6979;52.116;5.286;2022-11-14T02:23:11;9.80;99.90
13817;DHT22;6979;52.116;5.286;2022-11-14T02:25:57;9.80;99.90
13817;DHT22;6979;52.116;5.286;2022-11-14T02:28:43;9.80;99.90
13817;DHT22;6979;52.116;5.286;2022-11-14T02:31:28;9.70;99.90
13817;DHT22;6979;52.116;5.286;2022-11-14T02:34:14;9.70;99.90
13817;DHT22;6979;52.116;5.286;2022-11-14T02:37:04;9.70;99.90
13817;DHT22;6979;52.116;5.286;2022-11-14T02:39:49;9.60;99.90
13817;DHT22;6979;52.116;5.286;2022-11-14T02:42:35;9.60;99.90
13817;DHT22;6979;52.116;5.286;2022-11-14T02:45:20;9.60;99.90
13817;DHT22;6979;52.116;5.286;2022-11-14T02:48:06;9.50;99.90
13817;DHT22;6979;52.116;5.286;2022-11-14T02:50:52;9.60;99.90
13817;DHT22;6979;52.116;5.286;2022-11-14T02:53:38;9.50;99.90
13817;DHT22;6979;52.116;5.286;2022-11-14T02:56:24;9.50;99.90
13817;DHT22;6979;52.116;5.286;2022-11-14T02:59:09;9.50;99.90
13817;DHT22;6979;52.116;5.286;2022-11-14T03:01:55;9.40;99.90
13817;DHT22;6979;52.116;5.286;2022-11-14T03:04:40;9.40;99.90
13817;DHT22;6979;52.116;5.286;2022-11-14T03:07:26;9.40;99.90
13817;DHT22;6979;52.116;5.286;2022-11-14T03:10:13;9.40;99.90
13817;DHT22;6979;52.116;5.286;2022-11-14T03:12:58;9.40;99.90
13817;DHT22;6979;52.116;5.286;2022-11-14T03:15:44;9.40;99.90
13817;DHT22;6979;52.116;5.286;2022-11-14T03:18:29;9.30;99.90
13817;DHT22;6979;52.116;5.286;2022-11-14T03:21:17;9.30;99.90
13817;DHT22;6979;52.116;5.286;2022-11-14T03:24:03;9.30;99.90
13817;DHT22;6979;52.116;5.286;2022-11-14T03:26:49;9.20;99.90
13817;DHT22;6979;52.116;5.286;2022-11-14T03:29:35;9.20;99.90
13817;DHT22;6979;52.116;5.286;2022-11-14T03:32:20;9.20;99.90
13817;DHT22;6979;52.116;5.286;2022-11-14T03:35:07;9.20;99.90
13817;DHT22;6979;52.116;5.286;2022-11-14T03:37:52;9.20;99.90
13817;DHT22;6979;52.116;5.286;2022-11-14T03:40:38;9.10;99.90
13817;DHT22;6979;52.116;5.286;2022-11-14T03:43:25;9.10;99.90
13817;DHT22;6979;52.116;5.286;2022-11-14T03:46:11;9.10;99.90
13817;DHT22;6979;52.116;5.286;2022-11-14T03:48:56;9.00;99.90
13817;DHT22;6979;52.116;5.286;2022-11-14T03:51:42;9.00;99.90
13817;DHT22;6979;52.116;5.286;2022-11-14T03:54:27;9.00;99.90
13817;DHT22;6979;52.116;5.286;2022-11-14T03:57:13;9.00;99.90
13817;DHT22;6979;52.116;5.286;2022-11-14T03:59:59;9.00;99.90
13817;DHT22;6979;52.116;5.286;2022-11-14T04:02:45;8.90;99.90
13817;DHT22;6979;52.116;5.286;2022-11-14T04:05:30;8.90;99.90
13817;DHT22;6979;52.116;5.286;2022-11-14T04:08:16;8.90;99.90
13817;DHT22;6979;52.116;5.286;2022-11-14T04:11:01;8.90;99.90
13817;DHT22;6979;52.116;5.286;2022-11-14T04:13:47;8.80;99.90
13817;DHT22;6979;52.116;5.286;2022-11-14T04:16:34;8.90;99.90
13817;DHT22;6979;52.116;5.286;2022-11-14T04:19:19;8.80;99.90
13817;DHT22;6979;52.116;5.286;2022-11-14T04:22:04;8.80;99.90
13817;DHT22;6979;52.116;5.286;2022-11-14T04:24:50;8.80;99.90
13817;DHT22;6979;52.116;5.286;2022-11-14T04:27:35;8.80;99.90
13817;DHT22;6979;52.116;5.286;2022-11-14T04:30:21;8.80;99.90
13817;DHT22;6979;52.116;5.286;2022-11-14T04:33:08;8.80;99.90
13817;DHT22;6979;52.116;5.286;2022-11-14T04:35:53;8.80;99.90
13817;DHT22;6979;52.116;5.286;2022-11-14T04:38:38;8.80;99.90
13817;DHT22;6979;52.116;5.286;2022-11-14T04:41:24;8.70;99.90
13817;DHT22;6979;52.116;5.286;2022-11-14T04:44:09;8.70;99.90
13817;DHT22;6979;52.116;5.286;2022-11-14T04:46:55;8.70;99.90
13817;DHT22;6979;52.116;5.286;2022-11-14T04:49:42;8.70;99.90
13817;DHT22;6979;52.116;5.286;2022-11-14T04:52:27;8.70;99.90
13817;DHT22;6979;52.116;5.286;2022-11-14T04:55:13;8.60;99.90
13817;DHT22;6979;52.116;5.286;2022-11-14T04:57:58;8.60;99.90
13817;DHT22;6979;52.116;5.286;2022-11-14T05:00:43;8.60;99.90
13817;DHT22;6979;52.116;5.286;2022-11-14T05:03:29;8.60;99.90
13817;DHT22;6979;52.116;5.286;2022-11-14T05:06:16;8.60;99.90
13817;DHT22;6979;52.116;5.286;2022-11-14T05:09:01;8.60;99.90
13817;DHT22;6979;52.116;5.286;2022-11-14T05:11:46;8.50;99.90
13817;DHT22;6979;52.116;5.286;2022-11-14T05:14:32;8.50;99.90
13817;DHT22;6979;52.116;5.286;2022-11-14T05:17:18;8.50;99.90
13817;DHT22;6979;52.116;5.286;2022-11-14T05:20:04;8.50;99.90
13817;DHT22;6979;52.116;5.286;2022-11-14T05:22:53;8.50;99.90
13817;DHT22;6979;52.116;5.286;2022-11-14T05:25:39;8.50;99.90
13817;DHT22;6979;52.116;5.286;2022-11-14T05:28:24;8.50;99.90
13817;DHT22;6979;52.116;5.286;2022-11-14T05:31:11;8.50;99.90
13817;DHT22;6979;52.116;5.286;2022-11-14T05:33:58;8.50;99.90
13817;DHT22;6979;52.116;5.286;2022-11-14T05:36:43;8.40;99.90
13817;DHT22;6979;52.116;5.286;2022-11-14T05:39:30;8.40;99.90
13817;DHT22;6979;52.116;5.286;2022-11-14T05:42:15;8.40;99.90
13817;DHT22;6979;52.116;5.286;2022-11-14T05:45:00;8.40;99.90
13817;DHT22;6979;52.116;5.286;2022-11-14T05:47:46;8.40;99.90
13817;DHT22;6979;52.116;5.286;2022-11-14T05:50:31;8.40;99.90
13817;DHT22;6979;52.116;5.286;2022-11-14T05:53:17;8.40;99.90
13817;DHT22;6979;52.116;5.286;2022-11-14T05:56:06;8.30;99.90
13817;DHT22;6979;52.116;5.286;2022-11-14T05:58:51;8.30;99.90
13817;DHT22;6979;52.116;5.286;2022-11-14T06:01:37;8.30;99.90
13817;DHT22;6979;52.116;5.286;2022-11-14T06:04:22;8.30;99.90
13817;DHT22;6979;52.116;5.286;2022-11-14T06:07:08;8.20;99.90
13817;DHT22;6979;52.116;5.286;2022-11-14T06:09:53;8.30;99.90
13817;DHT22;6979;52.116;5.286;2022-11-14T06:12:40;8.20;99.90
13817;DHT22;6979;52.116;5.286;2022-11-14T06:15:25;8.20;99.90
13817;DHT22;6979;52.116;5.286;2022-11-14T06:18:11;8.20;99.90
13817;DHT22;6979;52.116;5.286;2022-11-14T06:20:58;8.20;99.90
13817;DHT22;6979;52.116;5.286;2022-11-14T06:23:44;8.20;99.90
13817;DHT22;6979;52.116;5.286;2022-11-14T06:26:30;8.20;99.90
13817;DHT22;6979;52.116;5.286;2022-11-14T06:29:17;8.20;99.90
13817;DHT22;6979;52.116;5.286;2022-11-14T06:32:03;8.10;99.90
13817;DHT22;6979;52.116;5.286;2022-11-14T06:34:48;8.10;99.90
13817;DHT22;6979;52.116;5.286;2022-11-14T06:37:35;8.10;99.90
13817;DHT22;6979;52.116;5.286;2022-11-14T06:40:20;8.10;99.90
13817;DHT22;6979;52.116;5.286;2022-11-14T06:43:06;8.10;99.90
13817;DHT22;6979;52.116;5.286;2022-11-14T06:45:53;8.10;99.90
13817;DHT22;6979;52.116;5.286;2022-11-14T06:48:39;8.10;99.90
13817;DHT22;6979;52.116;5.286;2022-11-14T06:51:25;8.10;99.90
13817;DHT22;6979;52.116;5.286;2022-11-14T06:54:10;8.10;99.90
13817;DHT22;6979;52.116;5.286;2022-11-14T06:56:56;8.10;99.90
13817;DHT22;6979;52.116;5.286;2022-11-14T06:59:42;8.10;99.90
13817;DHT22;6979;52.116;5.286;2022-11-14T07:02:28;8.10;99.90
13817;DHT22;6979;52.116;5.286;2022-11-14T07:05:14;8.00;99.90
13817;DHT22;6979;52.116;5.286;2022-11-14T07:08:00;8.00;99.90
13817;DHT22;6979;52.116;5.286;2022-11-14T07:10:45;8.00;99.90
13817;DHT22;6979;52.116;5.286;2022-11-14T07:13:31;8.00;99.90
13817;DHT22;6979;52.116;5.286;2022-11-14T07:16:17;8.00;99.90
13817;DHT22;6979;52.116;5.286;2022-11-14T07:19:06;8.00;99.90
13817;DHT22;6979;52.116;5.286;2022-11-14T07:21:53;8.00;99.90
13817;DHT22;6979;52.116;5.286;2022-11-14T07:24:39;8.00;99.90
13817;DHT22;6979;52.116;5.286;2022-11-14T07:27:24;8.00;99.90
13817;DHT22;6979;52.116;5.286;2022-11-14T07:30:10;8.00;99.90
13817;DHT22;6979;52.116;5.286;2022-11-14T07:32:57;8.00;99.90
13817;DHT22;6979;52.116;5.286;2022-11-14T07:35:43;8.00;99.90
13817;DHT22;6979;52.116;5.286;2022-11-14T07:38:29;8.00;99.90
13817;DHT22;6979;52.116;5.286;2022-11-14T07:41:15;8.00;99.90
13817;DHT22;6979;52.116;5.286;2022-11-14T07:44:01;8.00;99.90
13817;DHT22;6979;52.116;5.286;2022-11-14T07:46:46;8.00;99.90
13817;DHT22;6979;52.116;5.286;2022-11-14T07:49:33;8.00;99.90
13817;DHT22;6979;52.116;5.286;2022-11-14T07:52:20;8.00;99.90
13817;DHT22;6979;52.116;5.286;2022-11-14T07:55:06;8.10;99.90
13817;DHT22;6979;52.116;5.286;2022-11-14T07:57:52;8.10;99.90
13817;DHT22;6979;52.116;5.286;2022-11-14T08:00:38;8.10;99.90
13817;DHT22;6979;52.116;5.286;2022-11-14T08:03:23;8.10;99.90
13817;DHT22;6979;52.116;5.286;2022-11-14T08:06:10;8.10;99.90
13817;DHT22;6979;52.116;5.286;2022-11-14T08:08:57;8.20;99.90
13817;DHT22;6979;52.116;5.286;2022-11-14T08:11:43;8.20;99.90
13817;DHT22;6979;52.116;5.286;2022-11-14T08:14:34;8.20;99.90
13817;DHT22;6979;52.116;5.286;2022-11-14T08:17:20;8.30;99.90
13817;DHT22;6979;52.116;5.286;2022-11-14T08:20:08;8.30;99.90
13817;DHT22;6979;52.116;5.286;2022-11-14T08:23:00;8.40;99.90
13817;DHT22;6979;52.116;5.286;2022-11-14T08:25:47;8.40;99.90
13817;DHT22;6979;52.116;5.286;2022-11-14T08:28:32;8.50;99.90
13817;DHT22;6979;52.116;5.286;2022-11-14T08:31:17;8.60;99.90
13817;DHT22;6979;52.116;5.286;2022-11-14T08:34:03;8.60;99.90
13817;DHT22;6979;52.116;5.286;2022-11-14T08:36:48;8.70;99.90
13817;DHT22;6979;52.116;5.286;2022-11-14T08:39:34;8.70;99.90
13817;DHT22;6979;52.116;5.286;2022-11-14T08:42:20;8.80;99.90
13817;DHT22;6979;52.116;5.286;2022-11-14T08:45:06;8.90;99.90
13817;DHT22;6979;52.116;5.286;2022-11-14T08:47:52;9.00;99.90
13817;DHT22;6979;52.116;5.286;2022-11-14T08:50:37;9.00;99.90
13817;DHT22;6979;52.116;5.286;2022-11-14T08:53:23;9.10;99.90
13817;DHT22;6979;52.116;5.286;2022-11-14T08:56:09;9.20;99.90
13817;DHT22;6979;52.116;5.286;2022-11-14T08:58:56;9.30;99.90
13817;DHT22;6979;52.116;5.286;2022-11-14T09:01:42;9.30;99.90
13817;DHT22;6979;52.116;5.286;2022-11-14T09:04:28;9.40;99.90
13817;DHT22;6979;52.116;5.286;2022-11-14T09:07:13;9.50;99.90
13817;DHT22;6979;52.116;5.286;2022-11-14T09:09:59;9.50;99.90
13817;DHT22;6979;52.116;5.286;2022-11-14T09:12:44;9.60;99.90
13817;DHT22;6979;52.116;5.286;2022-11-14T09:15:31;9.80;99.90
13817;DHT22;6979;52.116;5.286;2022-11-14T09:18:18;10.20;99.90
13817;DHT22;6979;52.116;5.286;2022-11-14T09:21:05;10.80;99.90
13817;DHT22;6979;52.116;5.286;2022-11-14T09:23:50;11.40;99.90
13817;DHT22;6979;52.116;5.286;2022-11-14T09:26:36;12.10;99.90
13817;DHT22;6979;52.116;5.286;2022-11-14T09:29:22;12.80;99.90
13817;DHT22;6979;52.116;5.286;2022-11-14T09:32:08;13.60;99.90
13817;DHT22;6979;52.116;5.286;2022-11-14T09:34:54;14.40;99.90
13817;DHT22;6979;52.116;5.286;2022-11-14T09:37:39;15.20;99.90
13817;DHT22;6979;52.116;5.286;2022-11-14T09:40:25;15.90;99.90
13817;DHT22;6979;52.116;5.286;2022-11-14T09:43:22;16.60;99.90
13817;DHT22;6979;52.116;5.286;2022-11-14T09:46:16;17.30;99.90
13817;DHT22;6979;52.116;5.286;2022-11-14T09:49:08;18.00;99.90
13817;DHT22;6979;52.116;5.286;2022-11-14T09:52:00;18.60;99.90
13817;DHT22;6979;52.116;5.286;2022-11-14T09:54:51;19.20;99.90
13817;DHT22;6979;52.116;5.286;2022-11-14T09:57:40;19.70;99.90
13817;DHT22;6979;52.116;5.286;2022-11-14T10:00:38;20.20;99.90
13817;DHT22;6979;52.116;5.286;2022-11-14T10:03:37;20.60;99.90
13817;DHT22;6979;52.116;5.286;2022-11-14T10:06:30;21.10;99.90
13817;DHT22;6979;52.116;5.286;2022-11-14T10:09:29;21.50;99.90
13817;DHT22;6979;52.116;5.286;2022-11-14T10:12:21;21.80;99.90
13817;DHT22;6979;52.116;5.286;2022-11-14T10:15:14;22.20;99.90
13817;DHT22;6979;52.116;5.286;2022-11-14T10:18:14;22.50;99.90
13817;DHT22;6979;52.116;5.286;2022-11-14T10:21:08;22.90;99.80
13817;DHT22;6979;52.116;5.286;2022-11-14T10:24:04;23.10;99.40
13817;DHT22;6979;52.116;5.286;2022-11-14T10:26:59;23.40;98.30
13817;DHT22;6979;52.116;5.286;2022-11-14T10:29:59;23.70;98.30
13817;DHT22;6979;52.116;5.286;2022-11-14T10:33:01;24.10;97.50
13817;DHT22;6979;52.116;5.286;2022-11-14T10:35:54;24.40;96.90
13817;DHT22;6979;52.116;5.286;2022-11-14T10:38:45;24.80;96.10
13817;DHT22;6979;52.116;5.286;2022-11-14T10:41:34;25.00;94.80
13817;DHT22;6979;52.116;5.286;2022-11-14T10:44:25;25.20;92.70
13817;DHT22;6979;52.116;5.286;2022-11-14T10:47:14;25.20;88.90
13817;DHT22;6979;52.116;5.286;2022-11-14T10:50:13;25.10;87.30
13817;DHT22;6979;52.116;5.286;2022-11-14T10:53:04;24.90;89.60
13817;DHT22;6979;52.116;5.286;2022-11-14T10:55:55;24.60;88.10
13817;DHT22;6979;52.116;5.286;2022-11-14T10:58:43;24.30;90.20
13817;DHT22;6979;52.116;5.286;2022-11-14T11:01:34;24.20;90.40
13817;DHT22;6979;52.116;5.286;2022-11-14T11:04:24;24.00;91.00
13817;DHT22;6979;52.116;5.286;2022-11-14T11:07:22;24.00;90.90
13817;DHT22;6979;52.116;5.286;2022-11-14T11:10:26;24.00;90.80
13817;DHT22;6979;52.116;5.286;2022-11-14T11:13:31;24.00;89.10
13817;DHT22;6979;52.116;5.286;2022-11-14T11:16:21;23.90;90.60
13817;DHT22;6979;52.116;5.286;2022-11-14T11:19:17;23.80;88.20
13817;DHT22;6979;52.116;5.286;2022-11-14T11:22:24;23.60;88.00
13817;DHT22;6979;52.116;5.286;2022-11-14T11:25:22;23.40;90.10
13817;DHT22;6979;52.116;5.286;2022-11-14T11:28:11;23.30;90.60
13817;DHT22;6979;52.116;5.286;2022-11-14T11:30:58;23.30;91.00
13817;DHT22;6979;52.116;5.286;2022-11-14T11:33:45;23.30;90.10
13817;DHT22;6979;52.116;5.286;2022-11-14T11:36:38;23.30;90.00
13817;DHT22;6979;52.116;5.286;2022-11-14T11:39:27;23.20;90.30
13817;DHT22;6979;52.116;5.286;2022-11-14T11:42:17;23.10;90.40
13817;DHT22;6979;52.116;5.286;2022-11-14T11:45:09;23.10;90.00
13817;DHT22;6979;52.116;5.286;2022-11-14T11:48:00;23.10;89.60
13817;DHT22;6979;52.116;5.286;2022-11-14T11:50:48;23.00;90.30
13817;DHT22;6979;52.116;5.286;2022-11-14T11:53:38;22.90;87.80
13817;DHT22;6979;52.116;5.286;2022-11-14T11:56:25;22.70;86.90
13817;DHT22;6979;52.116;5.286;2022-11-14T11:59:20;22.50;88.20
13817;DHT22;6979;52.116;5.286;2022-11-14T12:02:19;22.30;89.00
13817;DHT22;6979;52.116;5.286;2022-11-14T12:05:09;22.10;88.10
13817;DHT22;6979;52.116;5.286;2022-11-14T12:08:00;21.90;88.90
13817;DHT22;6979;52.116;5.286;2022-11-14T12:10:47;21.80;86.70
13817;DHT22;6979;52.116;5.286;2022-11-14T12:13:53;21.60;89.00
13817;DHT22;6979;52.116;5.286;2022-11-14T12:20:24;21.30;90.20
13817;DHT22;6979;52.116;5.286;2022-11-14T12:26:43;21.40;90.30
13817;DHT22;6979;52.116;5.286;2022-11-14T12:29:47;21.40;90.30
13817;DHT22;6979;52.116;5.286;2022-11-14T12:32:41;21.40;90.00
13817;DHT22;6979;52.116;5.286;2022-11-14T12:35:30;21.40;90.70
13817;DHT22;6979;52.116;5.286;2022-11-14T12:38:18;21.40;90.00
13817;DHT22;6979;52.116;5.286;2022-11-14T12:41:04;21.40;89.50
13817;DHT22;6979;52.116;5.286;2022-11-14T12:43:50;21.40;89.90
13817;DHT22;6979;52.116;5.286;2022-11-14T12:50:00;21.00;88.00
13817;DHT22;6979;52.116;5.286;2022-11-14T12:52:50;20.60;88.30
13817;DHT22;6979;52.116;5.286;2022-11-14T12:56:12;20.30;89.20
13817;DHT22;6979;52.116;5.286;2022-11-14T12:59:14;19.80;90.00
13817;DHT22;6979;52.116;5.286;2022-11-14T13:02:35;19.50;90.20
13817;DHT22;6979;52.116;5.286;2022-11-14T13:05:51;19.00;90.50
13817;DHT22;6979;52.116;5.286;2022-11-14T13:09:01;18.60;90.90
13817;DHT22;6979;52.116;5.286;2022-11-14T13:11:52;18.20;91.20
13817;DHT22;6979;52.116;5.286;2022-11-14T13:15:20;17.80;91.70
13817;DHT22;6979;52.116;5.286;2022-11-14T13:18:21;17.50;92.00
13817;DHT22;6979;52.116;5.286;2022-11-14T13:21:26;17.20;92.50
13817;DHT22;6979;52.116;5.286;2022-11-14T13:27:50;16.50;93.50
13817;DHT22;6979;52.116;5.286;2022-11-14T13:31:04;16.20;93.70
13817;DHT22;6979;52.116;5.286;2022-11-14T13:33:51;15.90;94.40
13817;DHT22;6979;52.116;5.286;2022-11-14T13:36:44;15.60;94.80
13817;DHT22;6979;52.116;5.286;2022-11-14T13:39:36;15.40;94.80
13817;DHT22;6979;52.116;5.286;2022-11-14T13:42:42;15.10;95.50
13817;DHT22;6979;52.116;5.286;2022-11-14T13:46:00;14.90;95.90
13817;DHT22;6979;52.116;5.286;2022-11-14T13:49:00;14.70;96.20
13817;DHT22;6979;52.116;5.286;2022-11-14T13:51:51;14.50;96.50
13817;DHT22;6979;52.116;5.286;2022-11-14T13:54:44;14.40;96.70
13817;DHT22;6979;52.116;5.286;2022-11-14T13:57:39;14.20;96.80
13817;DHT22;6979;52.116;5.286;2022-11-14T14:00:29;14.10;97.20
13817;DHT22;6979;52.116;5.286;2022-11-14T14:03:30;14.10;97.40
13817;DHT22;6979;52.116;5.286;2022-11-14T14:06:33;14.00;97.70
13817;DHT22;6979;52.116;5.286;2022-11-14T14:09:29;14.00;98.10
13817;DHT22;6979;52.116;5.286;2022-11-14T14:12:28;13.90;98.20
13817;DHT22;6979;52.116;5.286;2022-11-14T14:15:21;13.90;98.50
13817;DHT22;6979;52.116;5.286;2022-11-14T14:18:18;14.00;98.80
13817;DHT22;6979;52.116;5.286;2022-11-14T14:21:12;14.00;99.10
13817;DHT22;6979;52.116;5.286;2022-11-14T14:24:05;14.10;99.70
13817;DHT22;6979;52.116;5.286;2022-11-14T14:27:00;14.10;99.30
13817;DHT22;6979;52.116;5.286;2022-11-14T14:29:55;14.10;99.50
13817;DHT22;6979;52.116;5.286;2022-11-14T14:33:01;14.10;99.70
13817;DHT22;6979;52.116;5.286;2022-11-14T14:35:51;14.10;99.90
13817;DHT22;6979;52.116;5.286;2022-11-14T14:38:38;14.10;99.90
13817;DHT22;6979;52.116;5.286;2022-11-14T14:41:25;14.10;99.90
13817;DHT22;6979;52.116;5.286;2022-11-14T14:44:26;14.10;99.90
13817;DHT22;6979;52.116;5.286;2022-11-14T14:47:26;14.10;99.90
13817;DHT22;6979;52.116;5.286;2022-11-14T14:50:19;14.10;99.90
13817;DHT22;6979;52.116;5.286;2022-11-14T14:53:05;14.10;99.90
13817;DHT22;6979;52.116;5.286;2022-11-14T14:55:53;14.10;99.90
13817;DHT22;6979;52.116;5.286;2022-11-14T14:58:39;14.10;99.90
13817;DHT22;6979;52.116;5.286;2022-11-14T15:01:30;14.10;99.90
13817;DHT22;6979;52.116;5.286;2022-11-14T15:04:17;14.10;99.90
13817;DHT22;6979;52.116;5.286;2022-11-14T15:07:03;14.10;99.90
13817;DHT22;6979;52.116;5.286;2022-11-14T15:09:51;14.00;99.90
13817;DHT22;6979;52.116;5.286;2022-11-14T15:12:41;14.00;99.90
13817;DHT22;6979;52.116;5.286;2022-11-14T15:15:27;13.90;99.90
13817;DHT22;6979;52.116;5.286;2022-11-14T15:18:17;13.90;99.90
13817;DHT22;6979;52.116;5.286;2022-11-14T15:21:15;13.90;99.90
13817;DHT22;6979;52.116;5.286;2022-11-14T15:24:10;13.80;99.90
13817;DHT22;6979;52.116;5.286;2022-11-14T15:26:56;13.70;99.90
13817;DHT22;6979;52.116;5.286;2022-11-14T15:29:47;13.70;99.90
13817;DHT22;6979;52.116;5.286;2022-11-14T15:32:32;13.60;99.90
13817;DHT22;6979;52.116;5.286;2022-11-14T15:35:27;13.60;99.90
13817;DHT22;6979;52.116;5.286;2022-11-14T15:38:21;13.50;99.90
13817;DHT22;6979;52.116;5.286;2022-11-14T15:41:17;13.40;99.90
13817;DHT22;6979;52.116;5.286;2022-11-14T15:44:03;13.40;99.90
13817;DHT22;6979;52.116;5.286;2022-11-14T15:46:50;13.40;99.90
13817;DHT22;6979;52.116;5.286;2022-11-14T15:49:37;13.30;99.90
13817;DHT22;6979;52.116;5.286;2022-11-14T15:52:24;13.30;99.90
13817;DHT22;6979;52.116;5.286;2022-11-14T15:55:13;13.20;99.90
13817;DHT22;6979;52.116;5.286;2022-11-14T15:57:59;13.20;99.90
13817;DHT22;6979;52.116;5.286;2022-11-14T16:00:46;13.10;99.90
13817;DHT22;6979;52.116;5.286;2022-11-14T16:03:34;13.10;99.90
13817;DHT22;6979;52.116;5.286;2022-11-14T16:06:19;13.00;99.90
13817;DHT22;6979;52.116;5.286;2022-11-14T16:09:05;13.00;99.90
13817;DHT22;6979;52.116;5.286;2022-11-14T16:11:50;12.90;99.90
13817;DHT22;6979;52.116;5.286;2022-11-14T16:14:36;12.90;99.90
13817;DHT22;6979;52.116;5.286;2022-11-14T16:17:21;12.80;99.90
13817;DHT22;6979;52.116;5.286;2022-11-14T16:20:13;12.80;99.90
13817;DHT22;6979;52.116;5.286;2022-11-14T16:23:00;12.70;99.90
13817;DHT22;6979;52.116;5.286;2022-11-14T16:25:45;12.70;99.90
13817;DHT22;6979;52.116;5.286;2022-11-14T16:28:31;12.60;99.90
13817;DHT22;6979;52.116;5.286;2022-11-14T16:31:17;12.50;99.90
13817;DHT22;6979;52.116;5.286;2022-11-14T16:34:03;12.50;99.90
13817;DHT22;6979;52.116;5.286;2022-11-14T16:36:56;12.50;99.90
13817;DHT22;6979;52.116;5.286;2022-11-14T16:39:42;12.40;99.90
13817;DHT22;6979;52.116;5.286;2022-11-14T16:42:27;12.40;99.90
13817;DHT22;6979;52.116;5.286;2022-11-14T16:45:13;12.30;99.90
13817;DHT22;6979;52.116;5.286;2022-11-14T16:47:59;12.30;99.90
13817;DHT22;6979;52.116;5.286;2022-11-14T16:50:44;12.20;99.90
13817;DHT22;6979;52.116;5.286;2022-11-14T16:53:31;12.20;99.90
13817;DHT22;6979;52.116;5.286;2022-11-14T16:56:16;12.10;99.90
13817;DHT22;6979;52.116;5.286;2022-11-14T16:59:02;12.10;99.90
13817;DHT22;6979;52.116;5.286;2022-11-14T17:01:47;12.00;99.90
13817;DHT22;6979;52.116;5.286;2022-11-14T17:04:32;12.00;99.90
13817;DHT22;6979;52.116;5.286;2022-11-14T17:07:18;11.90;99.90
13817;DHT22;6979;52.116;5.286;2022-11-14T17:10:06;11.80;99.90
13817;DHT22;6979;52.116;5.286;2022-11-14T17:12:51;11.80;99.90
13817;DHT22;6979;52.116;5.286;2022-11-14T17:15:37;11.70;99.90
13817;DHT22;6979;52.116;5.286;2022-11-14T17:18:22;11.70;99.90
13817;DHT22;6979;52.116;5.286;2022-11-14T17:21:10;11.60;99.90
13817;DHT22;6979;52.116;5.286;2022-11-14T17:23:57;11.60;99.90
13817;DHT22;6979;52.116;5.286;2022-11-14T17:26:45;11.60;99.90
13817;DHT22;6979;52.116;5.286;2022-11-14T17:29:31;11.50;99.90
13817;DHT22;6979;52.116;5.286;2022-11-14T17:32:16;11.50;99.90
13817;DHT22;6979;52.116;5.286;2022-11-14T17:35:02;11.40;99.90
13817;DHT22;6979;52.116;5.286;2022-11-14T17:37:47;11.40;99.90
13817;DHT22;6979;52.116;5.286;2022-11-14T17:40:33;11.30;99.90
13817;DHT22;6979;52.116;5.286;2022-11-14T17:43:20;11.30;99.90
13817;DHT22;6979;52.116;5.286;2022-11-14T17:46:05;11.30;99.90
13817;DHT22;6979;52.116;5.286;2022-11-14T17:48:51;11.20;99.90
13817;DHT22;6979;52.116;5.286;2022-11-14T17:51:36;11.20;99.90
13817;DHT22;6979;52.116;5.286;2022-11-14T17:54:22;11.20;99.90
13817;DHT22;6979;52.116;5.286;2022-11-14T17:57:07;11.10;99.90
13817;DHT22;6979;52.116;5.286;2022-11-14T17:59:54;11.10;99.90
13817;DHT22;6979;52.116;5.286;2022-11-14T18:02:39;11.10;99.90
13817;DHT22;6979;52.116;5.286;2022-11-14T18:05:25;11.00;99.90
13817;DHT22;6979;52.116;5.286;2022-11-14T18:08:10;11.00;99.90
13817;DHT22;6979;52.116;5.286;2022-11-14T18:10:58;10.90;99.90
13817;DHT22;6979;52.116;5.286;2022-11-14T18:13:43;10.90;99.90
13817;DHT22;6979;52.116;5.286;2022-11-14T18:16:30;10.90;99.90
13817;DHT22;6979;52.116;5.286;2022-11-14T18:19:16;10.80;99.90
13817;DHT22;6979;52.116;5.286;2022-11-14T18:22:01;10.80;99.90
13817;DHT22;6979;52.116;5.286;2022-11-14T18:24:46;10.80;99.90